Pagrindinis puslapis
METAR-TAF:

METAR-TAF

Oro uostai :

Saint Paul Island, Aliaska, Jungtinės Amerikos Valstijos

platuma: 57-10N, ilguma: 170-13W, Aukštis: 19 m

Dabartinis oras

Ataskaita buvo paskelbta 1 valandą ir 3 minutes, ne 05:53 UTC
Vėjas 7 kt iš Šiaurės Rytų
Temperatūra -1°C
Drėgmė 86%
Slėgis 1013 hPa
Matomumas: 16.1 km
Apsiniaukę ne aukštis 800 ft

METAR: PASN 280553Z AUTO 05007KT 10SM OVC008 M01/M03 A2992 RMK SLP132 60001 T10111033 10000 21011 53020 FZRANO TSNO $ VIA AUTODIAL

Laikas: 21:56 (06:56 UTC)

Prognozė

Ataskaita buvo paskelbta 1 valandą ir 23 minutes, ne 05:33 UTC
Prognozė galioja nuo 28 metu 06 UTC su 29 metu 06 UTC
Vėjas 9 kt iš Rytų/Šiaurės Rytų
Matomumas: 10 km
Apsiniaukę ne aukštis 700 ft
Nuo 28 metu 1800 UTC
Vėjas 13 kt iš Rytų
Matomumas: 10 km
Apsiniaukę ne aukštis 700 ft
Nuo 29 metu 0400 UTC
Vėjas 23 kt iš Rytų/Pietryčių su gūsio iki 30 kt
Matomumas: 2.4 km
Apsiniaukę ne aukštis 500 ft
sniegas, rūkana

TAF: PASN 280533Z 2806/2906 07009KT P6SM OVC007 FM281800 10013KT P6SM OVC007 FM290400 11023G30KT 1 1/2SM -SHSN BR OVC005

Orai ataskaitas ir orų prognozės (METAR, TAF).

turimą stotys yra geltonos ir raudonos taškus žemėlapyje.

Perkelti pele per norėdami pamatyti stoties vardą.

Tada spustelėkite, norėdami matyti oro stebėjimo ir prognozės.

Norėdami pakeisti žemėlapį: spustelėkite ant žalios mygtukų su juodo kryžiaus žemyn,; žalią mygtuką su brūkšneliu, jei norite nutolinti; arba žalių rodyklių gretimoms žemėlapius.


METAR-TAF: